xfce.org alexa rank chart, xfce.org alexa rank daily changes

xfce.org alexa rank chart, xfce.org alexa rank daily changes

xfce.org
Actual rank:
134 576

RANK HISTORY

Date Rank Diff
2017/12/18 134 576 -9 719
2017/12/17 144 295 +2 554
2017/12/16 141 741 +6 575
2017/12/15 135 166 -46
2017/12/14 135 212 -263
2017/12/13 135 475 -400
2017/12/12 135 875 +2 354
2017/12/11 133 521 +281
2017/12/10 133 240 +561
2017/12/09 132 679 -2 043
2017/12/08 134 722 +1 597
2017/12/07 133 125 +7 054
2017/12/06 126 071 -5 961
2017/12/05 132 032 -295
2017/12/04 132 327 -2 596
2017/12/03 134 923 -5 930
2017/12/02 140 853 -295
2017/12/01 141 148 +4 337
2017/11/30 136 811 -692
2017/11/29 137 503 +1 986
2017/11/28 135 517 +89
2017/11/27 135 428 +577
2017/11/26 134 851 +1 688
2017/11/25 133 163 +2 339
2017/11/24 130 824 +479
2017/11/23 130 345 -774
2017/11/22 131 119 -1 266
2017/11/21 132 385 +442
2017/11/20 131 943 +507
2017/11/19 131 436 -283
2017/11/18 131 719 -831
2017/11/17 132 550 -3 190
2017/11/16 135 740 -4 400
2017/11/15 140 140 +560
2017/11/14 139 580 +829
2017/11/13 138 751 -1 333
2017/11/12 140 084 -5 337
2017/11/11 145 421 -3 136
2017/11/10 148 557 +361
2017/11/09 148 196 +4 853
2017/11/08 143 343 -961
2017/11/07 144 304 -9 101
2017/11/06 153 405 -720
2017/11/05 154 125 +3 254
2017/11/04 150 871 +1 301
2017/11/03 149 570 +4 134
2017/11/02 145 436 -1 345
2017/11/01 146 781 -1 026
2017/10/31 147 807 +3 236
2017/10/30 144 571 -3 814
2017/10/29 148 385 -5 680
2017/10/28 154 065 +4 169
2017/10/27 149 896 +2 325
2017/10/26 147 571 +273
2017/10/25 147 298 -1 085
2017/10/24 148 383 +2 561
2017/10/23 145 822 +165
2017/10/22 145 657 +2 501
2017/10/21 143 156 -649
2017/10/20 143 805 +1 678
2017/10/19 142 127

WIDGET FOR YOUR SITE

DOMAINS WITH THE NEAREST RANK

Domain Rank
richmediagallery.com 134 571
schiesser.com 134 572
deloitte.ca 134 573
siteawy.com 134 574
livesets.at 134 575
xfce.org 134 576
notable-quotes.com 134 577
rotatepdf.net 134 578
letras4u.com 134 579
sonokinetic.net 134 580
day9.tv 134 581

DOMAINS WITH THE NEAREST RANK BY TLD .org

Domain Rank
pornhu.org 134 465
sccourts.org 134 475
uft.org 134 514
targetpublications.org 134 542
wpnull.org 134 551
xfce.org 134 576
bpl.org 134 587
vittana.org 134 593
lpzoo.org 134 594
afsglobal.org 134 598
mouthhealthy.org 134 653